Data for 10/28/2005

Time Sea-Level Adjusted Pressure Absolute Pressure Temperature Relative Humidity Dew Point   
(mb) (inHg) (mb) (inHg) (C) (F) (%) (C) (F)
00:05 1012 29.88 842 24.86 9.3 48.7 77 5.5 41.9
00:10 1012 29.88 842 24.86 9.2 48.6 79 5.8 42.4
00:15 1012 29.88 842 24.86 9.1 48.4 79 5.8 42.4
00:20 1013 29.91 842 24.86 9 48.2 81 5.9 42.6
00:25 1012 29.88 842 24.86 8.9 48 81 5.8 42.5
00:30 1013 29.91 842 24.86 8.8 47.8 83 6 42.9
00:35 1013 29.91 842 24.86 8.7 47.6 84 6.1 43
00:40 1013 29.91 842 24.86 8.7 47.6 84 6.2 43.1
00:45 1013 29.91 842 24.86 8.9 48 82 5.9 42.7
00:50 1013 29.91 842 24.86 9.1 48.3 81 6.1 42.9
00:55 1013 29.91 842 24.86 9.1 48.4 81 6 42.8
01:00 1013 29.91 842 24.86 8.8 47.9 82 6 42.7
01:05 1013 29.91 842 24.86 9 48.1 83 6.3 43.4
01:10 1013 29.91 842 24.86 9 48.3 82 6.1 43
01:15 1013 29.91 842 24.86 9 48.1 79 5.5 42
01:20 1013 29.91 842 24.86 8.8 47.9 80 5.7 42.2
01:25 1013 29.91 842 24.86 8.6 47.5 81 5.6 42.2
01:30 1012 29.88 842 24.86 8.4 47.1 83 5.7 42.2
01:35 1012 29.88 842 24.86 8.2 46.7 85 5.8 42.5
01:40 1012 29.88 842 24.86 8.1 46.6 86 5.9 42.6
01:45 1012 29.88 842 24.86 8.1 46.5 86 5.9 42.6
01:50 1012 29.88 842 24.86 8 46.3 88 6 42.9
01:55 1012 29.88 842 24.86 7.9 46.1 89 6.1 43
02:00 1012 29.88 842 24.86 7.9 46.3 89 6.2 43.1
02:05 1012 29.88 841 24.83 8 46.4 88 6.2 43.1
02:10 1012 29.88 841 24.83 8.1 46.5 88 6.2 43.2
02:15 1012 29.88 841 24.83 8.1 46.6 88 6.2 43.2
02:20 1012 29.88 841 24.83 8.1 46.5 90 6.4 43.6
02:25 1012 29.88 841 24.83 8 46.4 90 6.5 43.7
02:30 1012 29.88 841 24.83 8 46.3 90 6.4 43.5
02:35 1012 29.88 841 24.83 8 46.3 89 6.2 43.2
02:40 1012 29.88 841 24.83 7.6 45.7 91 6.3 43.3
02:45 1012 29.88 841 24.83 7.5 45.5 91 6.2 43.1
02:50 1012 29.88 841 24.83 7.5 45.4 91 6.1 43.1
02:55 1012 29.88 841 24.83 7.5 45.4 91 6.1 43.1
03:00 1012 29.88 841 24.83 7.4 45.4 92 6.2 43.1
03:05 1012 29.88 841 24.83 7.5 45.5 92 6.3 43.4
03:10 1012 29.88 842 24.86 7.7 45.8 93 6.6 43.8
03:15 1012 29.88 842 24.86 7.9 46.1 92 6.6 43.9
03:20 1012 29.88 842 24.86 8 46.5 91 6.6 43.9
03:25 1012 29.88 842 24.86 8 46.3 92 6.7 44
03:30 1012 29.88 842 24.86 7.8 46.1 92 6.6 43.9
03:35 1012 29.88 841 24.83 7.7 45.8 92 6.4 43.6
03:40 1012 29.88 841 24.83 7.7 45.8 93 6.6 43.8
03:45 1012 29.88 841 24.83 7.9 46.1 92 6.7 44
03:50 1012 29.88 841 24.83 7.9 46.2 92 6.7 44
03:55 1012 29.88 841 24.83 7.9 46.2 92 6.7 44
04:00 1012 29.88 841 24.83 7.9 46.1 92 6.6 44
04:05 1012 29.88 841 24.83 7.9 46.2 93 6.8 44.2
04:10 1012 29.88 841 24.83 7.9 46.2 92 6.7 44.1
04:15 1012 29.88 841 24.83 7.9 46.3 93 6.9 44.3
04:20 1012 29.88 841 24.83 7.8 46.1 93 6.8 44.2
04:25 1012 29.88 841 24.83 7.8 46.1 93 6.8 44.2
04:30 1012 29.88 842 24.86 7.9 46.1 93 6.8 44.2
04:35 1012 29.88 842 24.86 7.8 46.1 93 6.8 44.2
04:40 1012 29.88 842 24.86 7.8 46 93 6.8 44.2
04:45 1012 29.88 842 24.86 7.7 45.9 93 6.7 44.1
04:50 1012 29.88 842 24.86 7.6 45.7 94 6.7 44
04:55 1012 29.88 842 24.86 7.5 45.5 94 6.6 43.9
05:00 1012 29.88 842 24.86 7.4 45.3 94 6.5 43.7
05:05 1012 29.88 842 24.86 7.4 45.3 94 6.5 43.8
05:10 1012 29.88 842 24.86 7.4 45.3 94 6.5 43.7
05:15 1012 29.88 842 24.86 7.3 45.1 94 6.5 43.6
05:20 1012 29.88 842 24.86 7.3 45.1 95 6.5 43.7
05:25 1012 29.88 842 24.86 7.4 45.3 95 6.6 43.9
05:30 1012 29.88 842 24.86 7.4 45.2 95 6.6 43.9
05:35 1012 29.88 842 24.86 7.3 45.1 95 6.5 43.8
05:40 1012 29.88 842 24.86 7.2 44.9 96 6.5 43.8
05:45 1012 29.88 842 24.86 7.3 45.1 95 6.5 43.7
05:50 1012 29.88 842 24.86 7.2 44.9 95 6.4 43.6
05:55 1012 29.88 842 24.86 7.3 45.1 95 6.5 43.8
06:00 1013 29.91 842 24.86 7.2 45 96 6.6 43.8
06:05 1013 29.91 842 24.86 7.2 45 95 6.5 43.6
06:10 1013 29.91 842 24.86 7.2 44.9 95 6.5 43.6
06:15 1013 29.91 842 24.86 7.2 45 95 6.5 43.7
06:20 1013 29.91 842 24.86 7.3 45.2 95 6.5 43.8
06:25 1013 29.91 842 24.86 7.4 45.3 94 6.4 43.5
06:30 1013 29.91 842 24.86 7.4 45.3 93 6.4 43.5
06:35 1013 29.91 842 24.86 7.4 45.2 93 6.3 43.4
06:40 1013 29.91 842 24.86 7.2 45 94 6.3 43.3
06:45 1013 29.91 842 24.86 7.2 44.9 94 6.3 43.3
06:50 1013 29.91 842 24.86 7.3 45.1 94 6.3 43.4
06:55 1013 29.91 842 24.86 7.3 45.1 94 6.4 43.4
07:00 1013 29.91 842 24.86 7.2 44.9 94 6.2 43.2
07:05 1013 29.91 842 24.86 7 44.6 95 6.2 43.2
07:10 1013 29.91 842 24.86 6.9 44.5 95 6.2 43.2
07:15 1013 29.91 842 24.86 7 44.6 95 6.3 43.3
07:20 1013 29.91 842 24.86 6.9 44.4 95 6.2 43.1
07:25 1013 29.91 842 24.86 6.6 43.8 97 6.1 42.9
07:30 1013 29.91 842 24.86 6.3 43.4 97 6 42.7
07:35 1013 29.91 842 24.86 6.4 43.6 98 6.1 43
07:40 1013 29.91 842 24.86 6.4 43.6 98 6.1 43.1
07:45 1013 29.91 842 24.86 6.5 43.7 98 6.2 43.2
07:50 1013 29.91 842 24.86 6.6 43.8 98 6.3 43.3
07:55 1013 29.91 842 24.86 6.6 43.8 98 6.3 43.4
08:00 1013 29.91 842 24.86 6.6 43.9 98 6.4 43.5
08:05 1013 29.91 842 24.86 6.6 43.9 98 6.3 43.4
08:10 1013 29.91 842 24.86 6.6 43.9 98 6.3 43.4
08:15 1013 29.91 842 24.86 6.6 43.9 98 6.4 43.5
08:20 1013 29.91 842 24.86 6.7 44 98 6.4 43.5
08:25 1013 29.91 842 24.86 6.6 43.9 98 6.3 43.4
08:30 1013 29.91 842 24.86 6.6 43.8 99 6.3 43.4
08:35 1013 29.91 842 24.86 6.6 43.8 98 6.3 43.4
08:40 1013 29.91 842 24.86 6.6 43.8 99 6.3 43.4
08:45 1013 29.91 842 24.86 6.6 43.9 98 6.3 43.4
08:50 1013 29.91 842 24.86 6.6 43.9 98 6.4 43.4
08:55 1013 29.91 842 24.86 6.6 44 98 6.3 43.4
09:00 1013 29.91 843 24.89 6.6 43.9 98 6.3 43.4
09:05 1013 29.91 843 24.89 6.6 43.8 99 6.4 43.4
09:10 1013 29.91 843 24.89 6.6 43.9 99 6.4 43.5
09:15 1013 29.91 843 24.89 6.8 44.2 98 6.5 43.8
09:20 1013 29.91 843 24.89 6.9 44.5 98 6.7 44
09:25 1013 29.91 843 24.89 7 44.6 98 6.7 44
09:30 1013 29.91 843 24.89 7.1 44.8 97 6.7 44.1
09:35 1013 29.91 843 24.89 7.4 45.3 96 6.8 44.2
09:40 1013 29.91 843 24.89 7.5 45.5 95 6.8 44.2
09:45 1014 29.94 843 24.89 7.5 45.4 94 6.6 43.8
09:50 1014 29.94 843 24.89 7.5 45.4 95 6.7 44.1
09:55 1014 29.94 843 24.89 7.6 45.6 95 6.8 44.3
10:00 1014 29.94 843 24.89 7.8 46 94 6.9 44.4
10:05 1014 29.94 843 24.89 8.1 46.6 92 7 44.5
10:10 1014 29.94 843 24.89 8.4 47.1 90 6.8 44.3
10:15 1014 29.94 843 24.89 8.5 47.4 90 7 44.6
10:20 1014 29.94 843 24.89 8.6 47.5 90 7 44.7
10:25 1014 29.94 843 24.89 8.6 47.4 90 7.1 44.7
10:30 1014 29.94 843 24.89 8.6 47.4 91 7.2 44.9
10:35 1014 29.94 843 24.89 8.7 47.6 91 7.3 45.1
10:40 1014 29.94 843 24.89 8.7 47.6 90 7.2 44.9
10:45 1014 29.94 843 24.89 8.8 47.9 90 7.3 45.1
10:50 1014 29.94 843 24.89 8.9 48 89 7.2 44.9
10:55 1014 29.94 843 24.89 8.8 47.8 89 7 44.7
11:00 1014 29.94 843 24.89 8.6 47.6 91 7.2 45
11:05 1014 29.94 843 24.89 8.5 47.2 91 7.1 44.7
11:10 1014 29.94 843 24.89 8.2 46.7 92 6.9 44.5
11:15 1014 29.94 843 24.89 8.2 46.8 94 7.3 45.1
11:20 1014 29.94 843 24.89 8.5 47.2 92 7.2 45
11:25 1014 29.94 843 24.89 8.1 46.5 92 6.9 44.4
11:30 1014 29.94 843 24.89 8.5 47.2 91 7 44.6
11:35 1014 29.94 843 24.89 8.7 47.7 86 6.6 43.9
11:40 1014 29.94 843 24.89 8.4 47.2 90 6.9 44.3
11:45 1014 29.94 843 24.89 8.8 47.8 88 6.8 44.3
11:50 1014 29.94 843 24.89 9.1 48.4 86 7 44.5
11:55 1014 29.94 843 24.89 9.2 48.5 86 7 44.7
12:00 1014 29.94 843 24.89 9.3 48.7 84 6.7 44
12:05 1014 29.94 843 24.89 9.4 49 82 6.5 43.8
12:10 1014 29.94 843 24.89 9.4 49 83 6.7 44
12:15 1014 29.94 843 24.89 9.4 48.8 84 6.7 44.1
12:20 1014 29.94 843 24.89 9.3 48.7 86 7 44.6
12:25 1014 29.94 843 24.89 9.4 48.9 84 6.9 44.5
12:30 1014 29.94 843 24.89 9.5 49.1 83 6.8 44.3
12:35 1014 29.94 843 24.89 9.6 49.3 85 7.3 45.1
12:40 1014 29.94 843 24.89 9.9 49.7 82 7 44.6
12:45 1014 29.94 843 24.89 9.8 49.6 80 6.5 43.8
12:50 1014 29.94 843 24.89 9.9 49.8 76 5.9 42.7
12:55 1014 29.94 843 24.89 9.8 49.7 79 6.3 43.3
13:00 1014 29.94 843 24.89 9.7 49.4 80 6.4 43.5
13:05 1014 29.94 843 24.89 9.6 49.3 81 6.6 43.9
13:10 1014 29.94 843 24.89 9.5 49.1 83 6.8 44.2
13:15 1014 29.94 843 24.89 9.8 49.6 81 6.6 44
13:20 1014 29.94 843 24.89 9.8 49.6 81 6.7 44
13:25 1014 29.94 843 24.89 9.7 49.4 82 6.7 44.1
13:30 1014 29.94 843 24.89 9.6 49.3 79 6.1 43
13:35 1014 29.94 843 24.89 10 49.9 75 5.7 42.2
13:40 1014 29.94 843 24.89 10 49.9 77 6.1 43
13:45 1014 29.94 843 24.89 9.8 49.6 80 6.5 43.7
13:50 1014 29.94 843 24.89 9.8 49.6 76 5.7 42.3
13:55 1014 29.94 843 24.89 9.7 49.4 79 6.2 43.2
14:00 1014 29.94 843 24.89 10.3 50.6 72 5.5 42
14:05 1014 29.94 843 24.89 10.6 51.1 73 5.9 42.7
14:10 1014 29.94 843 24.89 10.8 51.5 75 6.6 43.8
14:15 1014 29.94 843 24.89 10.6 51 73 5.9 42.7
14:20 1014 29.94 843 24.89 10.7 51.2 73 6.1 43
14:25 1014 29.94 843 24.89 10.7 51.3 72 5.9 42.6
14:30 1014 29.94 843 24.89 10.9 51.6 71 5.9 42.6
14:35 1014 29.94 843 24.89 11 51.8 68 5.5 41.9
14:40 1014 29.94 843 24.89 11.2 52.2 68 5.5 41.9
14:45 1014 29.94 843 24.89 12.1 53.8 64 5.5 41.9
14:50 1014 29.94 843 24.89 12.1 53.7 66 5.9 42.7
14:55 1014 29.94 843 24.89 11 51.8 69 5.6 42.1
15:00 1014 29.94 843 24.89 11 51.8 68 5.4 41.7
15:05 1014 29.94 843 24.89 11 51.8 68 5.3 41.5
15:10 1014 29.94 843 24.89 10.7 51.3 68 5.2 41.3
15:15 1014 29.94 843 24.89 10.9 51.6 69 5.4 41.7
15:20 1014 29.94 843 24.89 11 51.8 68 5.4 41.8
15:25 1014 29.94 843 24.89 11 51.7 70 5.7 42.2
15:30 1014 29.94 843 24.89 10.7 51.3 69 5.3 41.5
15:35 1014 29.94 843 24.89 10.5 50.8 71 5.5 41.9
15:40 1014 29.94 843 24.89 10.7 51.2 69 5.2 41.3
15:45 1014 29.94 843 24.89 10.8 51.5 69 5.3 41.6
15:50 1014 29.94 843 24.89 10.6 51.1 70 5.4 41.7
15:55 1014 29.94 843 24.89 10.7 51.3 70 5.4 41.8
16:00 1014 29.94 843 24.89 10.9 51.5 69 5.4 41.7
16:05 1014 29.94 843 24.89 10.9 51.6 69 5.5 42
16:10 1014 29.94 843 24.89 11 51.7 68 5.3 41.6
16:15 1014 29.94 843 24.89 10.7 51.2 69 5.3 41.6
16:20 1014 29.94 843 24.89 10.4 50.8 70 5.2 41.4
16:25 1014 29.94 843 24.89 10 50.1 71 5.1 41.2
16:30 1014 29.94 843 24.89 9.9 49.7 72 5 41
16:35 1014 29.94 843 24.89 9.9 49.8 72 5.1 41.1
16:40 1014 29.94 843 24.89 9.9 49.8 72 5.1 41.2
16:45 1014 29.94 843 24.89 9.9 49.9 72 5.2 41.3
16:50 1014 29.94 843 24.89 10.2 50.3 71 5.1 41.2
16:55 1014 29.94 843 24.89 10 49.9 73 5.3 41.6
17:00 1014 29.94 843 24.89 9.8 49.7 73 5.3 41.5
17:05 1014 29.94 843 24.89 9.9 49.7 74 5.4 41.7
17:10 1014 29.94 843 24.89 9.8 49.6 73 5.2 41.4
17:15 1014 29.94 843 24.89 9.7 49.4 73 5 41
17:20 1014 29.94 843 24.89 9.7 49.4 73 5.1 41.1
17:25 1014 29.94 843 24.89 9.9 49.7 72 5.1 41.2
17:30 1014 29.94 843 24.89 10.2 50.3 72 5.3 41.5
17:35 1014 29.94 843 24.89 10.2 50.3 72 5.3 41.6
17:40 1014 29.94 844 24.92 10.1 50.2 72 5.3 41.6
17:45 1014 29.94 844 24.92 10 50 73 5.5 41.9
17:50 1014 29.94 844 24.92 10 50 73 5.3 41.6
17:55 1014 29.94 844 24.92 10.2 50.4 71 5.3 41.6
18:00 1014 29.94 844 24.92 10.1 50.2 70 5 40.9
18:05 1014 29.94 844 24.92 10.2 50.4 69 4.8 40.7
18:10 1014 29.94 844 24.92 10 50 70 4.9 40.8
18:15 1014 29.94 844 24.92 10 49.9 68 4.5 40
18:20 1014 29.94 844 24.92 9.8 49.7 75 5.5 41.9
18:25 1014 29.94 844 24.92 9.6 49.2 66 3.4 38.2
18:30 1014 29.94 844 24.92 9.4 48.9 66 3.3 38
18:35 1015 29.97 844 24.92 9.4 49 60 2 35.6
18:40 1014 29.94 844 24.92 9.3 48.7 58 1.5 34.8
18:45 1015 29.97 844 24.92 9.1 48.5 57 1 33.8
18:50 1014 29.94 844 24.92 9 48.2 56 0.7 33.2
18:55 1015 29.97 844 24.92 9.1 48.4 56 0.8 33.5
19:00 1015 29.97 844 24.92 9.2 48.6 57 1.1 34
19:05 1015 29.97 844 24.92 9.2 48.6 56 1 33.9
19:10 1015 29.97 844 24.92 9.2 48.6 56 1 33.8
19:15 1015 29.97 844 24.92 9.3 48.7 53 0.3 32.6
19:20 1015 29.97 844 24.92 9.4 48.9 52 -0 32
19:25 1015 29.97 844 24.92 9.5 49 52 0.2 32.4
19:30 1015 29.97 844 24.92 9.5 49.2 51 0.1 32.1
19:35 1015 29.97 844 24.92 9.5 49.2 53 0.4 32.7
19:40 1015 29.97 844 24.92 9.5 49.2 52 0.1 32.2
19:45 1015 29.97 844 24.92 9.6 49.3 50 -0.1 31.7
19:50 1015 29.97 844 24.92 9.6 49.3 51 -0.1 31.8
19:55 1015 29.97 844 24.92 9.5 49.1 52 0.2 32.4
20:00 1015 29.97 844 24.92 9.3 48.7 53 0.3 32.5
20:05 1015 29.97 844 24.92 9.1 48.4 55 0.7 33.3
20:10 1015 29.97 844 24.92 9 48.3 54 0.4 32.7
20:15 1015 29.97 844 24.92 8.8 47.8 56 0.6 33
20:20 1015 29.97 844 24.92 8.5 47.3 57 0.5 32.9
20:25 1015 29.97 844 24.92 8.3 47 57 0.4 32.8
20:30 1015 29.97 844 24.92 8 46.5 61 1 33.8
20:35 1015 29.97 844 24.92 7.4 45.3 65 1.3 34.3
20:40 1015 29.97 844 24.92 6.7 44.1 66 0.9 33.7
20:45 1015 29.97 844 24.92 6.8 44.2 65 0.7 33.3
20:50 1015 29.97 844 24.92 7.2 44.9 65 1 33.9
20:55 1015 29.97 844 24.92 7.5 45.5 65 1.4 34.5
21:00 1015 29.97 844 24.92 7.7 45.8 65 1.5 34.7
21:05 1015 29.97 844 24.92 7.6 45.6 66 1.6 34.8
21:10 1015 29.97 844 24.92 7.4 45.3 65 1.2 34.2
21:15 1015 29.97 844 24.92 7.6 45.7 64 1.2 34.2
21:20 1015 29.97 844 24.92 7.5 45.4 65 1.4 34.4
21:25 1015 29.97 844 24.92 7 44.7 68 1.6 34.9
21:30 1015 29.97 844 24.92 6.6 43.8 68 1.1 34
21:35 1015 29.97 844 24.92 6.6 43.9 69 1.3 34.3
21:40 1015 29.97 844 24.92 6.4 43.6 70 1.4 34.4
21:45 1015 29.97 845 24.95 6.3 43.4 67 0.7 33.3
21:50 1015 29.97 845 24.95 6.3 43.4 67 0.7 33.3
21:55 1015 29.97 845 24.95 6.4 43.5 66 0.5 32.9
22:00 1015 29.97 845 24.95 6.4 43.6 69 1.1 34.1
22:05 1015 29.97 845 24.95 5.8 42.4 70 0.8 33.4
22:10 1015 29.97 845 24.95 5.9 42.7 68 0.5 32.8
22:15 1015 29.97 845 24.95 6.3 43.4 66 0.4 32.8
22:20 1015 29.97 845 24.95 6.4 43.5 67 0.7 33.3
22:25 1015 29.97 845 24.95 6.3 43.3 67 0.6 33
22:30 1015 29.97 845 24.95 5.9 42.6 70 0.9 33.6
22:35 1015 29.97 845 24.95 5.4 41.7 72 0.7 33.3
22:40 1015 29.97 845 24.95 5.4 41.7 71 0.5 33
22:45 1015 29.97 845 24.95 5.2 41.4 72 0.6 33.1
22:50 1015 29.97 845 24.95 5.2 41.4 72 0.6 33
22:55 1015 29.97 845 24.95 5.2 41.3 72 0.6 33.1
23:00 1015 29.97 845 24.95 5 40.9 74 0.7 33.2
23:05 1016 30 845 24.95 4.7 40.5 74 0.5 33
23:10 1016 30 845 24.95 4.7 40.4 74 0.4 32.8
23:15 1016 30 845 24.95 5 40.9 72 0.4 32.7
23:20 1016 30 845 24.95 5.1 41.2 71 0.3 32.5
23:25 1016 30 845 24.95 5.3 41.6 69 0.2 32.4
23:30 1016 30 845 24.95 5.5 41.9 70 0.5 32.8
23:35 1016 30 845 24.95 5.6 42.1 70 0.6 33.1
23:40 1016 30 845 24.95 5.6 42.1 71 0.7 33.3
23:45 1016 30 845 24.95 5.4 41.8 73 1 33.7
23:50 1016 30 845 24.95 5.1 41.2 74 0.9 33.6
23:55 1016 30 845 24.95 4.8 40.6 75 0.8 33.5
24:00 1016 30 845 24.95 4.8 40.6 76 0.9 33.5